createdAt,value
2018-04-20T00:00:39.178Z,1013.9
2018-04-20T00:01:39.157Z,1013.89
2018-04-20T00:02:39.146Z,1013.86
2018-04-20T00:03:39.117Z,1013.85
2018-04-20T00:04:39.097Z,1013.89
2018-04-20T00:05:39.078Z,1013.86
2018-04-20T00:06:39.059Z,1013.88
2018-04-20T00:07:39.039Z,1013.86
2018-04-20T00:08:39.020Z,1013.86
2018-04-20T00:09:39.004Z,1013.84
2018-04-20T00:10:38.978Z,1013.84
2018-04-20T00:11:38.968Z,1013.86
2018-04-20T00:12:38.939Z,1013.84
2018-04-20T00:13:38.919Z,1013.81
2018-04-20T00:14:38.898Z,1013.81
2018-04-20T00:15:38.878Z,1013.8
2018-04-20T00:16:38.861Z,1013.82
2018-04-20T00:17:38.838Z,1013.76
2018-04-20T00:18:38.817Z,1013.79
2018-04-20T00:19:38.798Z,1013.8
2018-04-20T00:20:38.778Z,1013.79
2018-04-20T00:21:38.755Z,1013.81
2018-04-20T00:22:38.735Z,1013.79
2018-04-20T00:23:38.716Z,1013.77
2018-04-20T00:24:38.698Z,1013.75
2018-04-20T00:25:38.675Z,1013.71
2018-04-20T00:26:38.656Z,1013.73
2018-04-20T00:27:38.637Z,1013.69
2018-04-20T00:28:38.617Z,1013.69
2018-04-20T00:29:38.596Z,1013.69
2018-04-20T00:30:38.576Z,1013.7
2018-04-20T00:31:38.556Z,1013.68
2018-04-20T00:32:38.535Z,1013.67
2018-04-20T00:33:38.514Z,1013.68
2018-04-20T00:34:38.502Z,1013.67
2018-04-20T00:35:38.475Z,1013.65
2018-04-20T00:36:38.452Z,1013.67
2018-04-20T00:37:38.438Z,1013.63
2018-04-20T00:38:38.413Z,1013.65
2018-04-20T00:39:38.393Z,1013.63
2018-04-20T00:40:38.373Z,1013.61
2018-04-20T00:41:38.352Z,1013.61
2018-04-20T00:42:38.333Z,1013.64
2018-04-20T00:43:38.312Z,1013.61
2018-04-20T00:44:38.291Z,1013.59
2018-04-20T00:45:38.273Z,1013.59
2018-04-20T00:46:38.252Z,1013.59
2018-04-20T00:47:38.230Z,1013.53
2018-04-20T00:48:38.212Z,1013.52
2018-04-20T00:49:38.191Z,1013.52
2018-04-20T00:50:38.174Z,1013.5
2018-04-20T00:51:38.151Z,1013.51
2018-04-20T00:52:38.131Z,1013.49
2018-04-20T00:53:38.110Z,1013.49
2018-04-20T00:54:38.097Z,1013.45
2018-04-20T00:55:38.068Z,1013.43
2018-04-20T00:56:38.049Z,1013.43
2018-04-20T00:57:38.030Z,1013.42
2018-04-20T00:58:38.009Z,1013.42
2018-04-20T00:59:37.988Z,1013.39
2018-04-20T01:00:37.994Z,1013.4
2018-04-20T01:01:37.948Z,1013.41
2018-04-20T01:02:37.928Z,1013.38
2018-04-20T01:03:37.907Z,1013.38
2018-04-20T01:04:37.888Z,1013.37
2018-04-20T01:05:37.867Z,1013.4
2018-04-20T01:06:37.847Z,1013.35
2018-04-20T01:07:37.829Z,1013.3
2018-04-20T01:08:37.809Z,1013.29
2018-04-20T01:09:37.787Z,1013.32
2018-04-20T01:10:37.773Z,1013.29
2018-04-20T01:11:37.748Z,1013.24
2018-04-20T01:12:37.730Z,1013.29
2018-04-20T01:13:37.708Z,1013.25
2018-04-20T01:14:37.689Z,1013.25
2018-04-20T01:15:37.669Z,1013.25
2018-04-20T01:16:37.647Z,1013.23
2018-04-20T01:17:37.628Z,1013.27
2018-04-20T01:18:37.607Z,1013.2
2018-04-20T01:19:37.586Z,1013.21
2018-04-20T01:20:37.567Z,1013.18
2018-04-20T01:21:37.548Z,1013.19
2018-04-20T01:22:37.527Z,1013.17
2018-04-20T01:23:37.506Z,1013.16
2018-04-20T01:24:37.487Z,1013.17
2018-04-20T01:25:37.470Z,1013.18
2018-04-20T01:26:37.448Z,1013.2
2018-04-20T01:27:37.426Z,1013.18
2018-04-20T01:28:37.406Z,1013.2
2018-04-20T01:29:37.387Z,1013.23
2018-04-20T01:30:37.366Z,1013.15
2018-04-20T01:31:37.344Z,1013.17
2018-04-20T01:32:37.325Z,1013.16
2018-04-20T01:33:37.307Z,1013.13
2018-04-20T01:34:37.284Z,1013.14
2018-04-20T01:35:37.265Z,1013.13
2018-04-20T01:36:37.245Z,1013.14
2018-04-20T01:37:37.224Z,1013.13
2018-04-20T01:38:37.206Z,1013.09
2018-04-20T01:39:37.183Z,1013.14
2018-04-20T01:40:37.165Z,1013.12
2018-04-20T01:41:37.155Z,1013.15
2018-04-20T01:42:37.122Z,1013.14
2018-04-20T01:43:37.103Z,1013.13
2018-04-20T01:44:37.084Z,1013.13
2018-04-20T01:45:37.062Z,1013.17
2018-04-20T01:46:37.043Z,1013.15
2018-04-20T01:47:37.022Z,1013.2
2018-04-20T01:48:37.007Z,1013.18
2018-04-20T01:49:36.981Z,1013.18
2018-04-20T01:50:36.961Z,1013.16
2018-04-20T01:51:36.940Z,1013.17
2018-04-20T01:52:36.921Z,1013.14
2018-04-20T01:53:36.900Z,1013.12
2018-04-20T01:54:36.878Z,1013.13
2018-04-20T01:55:36.901Z,1013.09
2018-04-20T01:56:36.837Z,1013.08
2018-04-20T01:57:36.816Z,1013.13
2018-04-20T01:58:36.797Z,1013.1
2018-04-20T01:59:36.778Z,1013.09
2018-04-20T02:00:36.756Z,1013.08
2018-04-20T02:01:36.736Z,1013.1
2018-04-20T02:02:36.716Z,1013.06
2018-04-20T02:03:36.695Z,1013.09
2018-04-20T02:04:36.673Z,1013.06
2018-04-20T02:05:36.659Z,1013.11
2018-04-20T02:06:36.638Z,1013.08
2018-04-20T02:07:36.615Z,1013.06
2018-04-20T02:08:36.592Z,1013.03
2018-04-20T02:09:36.574Z,1013.01
2018-04-20T02:10:36.553Z,1013.09
2018-04-20T02:11:36.533Z,1013.02
2018-04-20T02:12:36.512Z,1013
2018-04-20T02:13:36.492Z,1012.98
2018-04-20T02:14:36.568Z,1012.97
2018-04-20T02:15:36.551Z,1012.98
2018-04-20T02:16:36.429Z,1012.98
2018-04-20T02:17:36.409Z,1013
2018-04-20T02:18:36.388Z,1013.02
2018-04-20T02:19:36.367Z,1013
2018-04-20T02:20:36.348Z,1012.99
2018-04-20T02:21:36.326Z,1012.96
2018-04-20T02:22:36.306Z,1012.93
2018-04-20T02:23:36.285Z,1012.99
2018-04-20T02:24:36.263Z,1012.97
2018-04-20T02:25:36.244Z,1012.96
2018-04-20T02:26:36.222Z,1012.97
2018-04-20T02:27:36.203Z,1012.96
2018-04-20T02:28:36.181Z,1012.97
2018-04-20T02:29:36.159Z,1012.96
2018-04-20T02:30:36.139Z,1012.96
2018-04-20T02:31:36.125Z,1012.93
2018-04-20T02:32:36.099Z,1012.92
2018-04-20T02:33:36.078Z,1012.95
2018-04-20T02:34:36.057Z,1012.93
2018-04-20T02:35:36.037Z,1012.91
2018-04-20T02:36:36.015Z,1012.91
2018-04-20T02:37:35.994Z,1012.92
2018-04-20T02:38:35.975Z,1012.91
2018-04-20T02:39:35.961Z,1012.93
2018-04-20T02:40:35.932Z,1012.92
2018-04-20T02:41:35.910Z,1012.95
2018-04-20T02:42:35.890Z,1012.93
2018-04-20T02:43:35.871Z,1012.93
2018-04-20T02:44:35.850Z,1012.92
2018-04-20T02:45:35.829Z,1012.89
2018-04-20T02:46:35.811Z,1012.9
2018-04-20T02:47:35.787Z,1012.92
2018-04-20T02:48:35.768Z,1012.88
2018-04-20T02:49:35.746Z,1012.88
2018-04-20T02:50:35.732Z,1012.89
2018-04-20T02:51:35.705Z,1012.88
2018-04-20T02:52:35.684Z,1012.92
2018-04-20T02:53:35.663Z,1012.89
2018-04-20T02:54:35.664Z,1012.87
2018-04-20T02:55:35.622Z,1012.9
2018-04-20T02:56:35.602Z,1012.87
2018-04-20T02:57:35.581Z,1012.86
2018-04-20T02:58:35.560Z,1012.87
2018-04-20T02:59:35.538Z,1012.87
2018-04-20T03:00:35.548Z,1012.9
2018-04-20T03:01:35.497Z,1012.88
2018-04-20T03:02:35.476Z,1012.89
2018-04-20T03:03:35.455Z,1012.88
2018-04-20T03:04:35.435Z,1012.86
2018-04-20T03:05:35.422Z,1012.84
2018-04-20T03:06:35.392Z,1012.83
2018-04-20T03:07:35.372Z,1012.8
2018-04-20T03:08:35.350Z,1012.79
2018-04-20T03:09:35.331Z,1012.81
2018-04-20T03:10:35.348Z,1012.79
2018-04-20T03:11:35.288Z,1012.77
2018-04-20T03:12:35.267Z,1012.72
2018-04-20T03:13:35.247Z,1012.71
2018-04-20T03:14:35.225Z,1012.73
2018-04-20T03:15:35.205Z,1012.68
2018-04-20T03:16:35.185Z,1012.64
2018-04-20T03:17:35.164Z,1012.68
2018-04-20T03:18:35.143Z,1012.66
2018-04-20T03:19:35.123Z,1012.63
2018-04-20T03:20:35.100Z,1012.63
2018-04-20T03:21:35.082Z,1012.58
2018-04-20T03:22:35.061Z,1012.64
2018-04-20T03:23:35.041Z,1012.57
2018-04-20T03:24:35.019Z,1012.59
2018-04-20T03:25:34.999Z,1012.59
2018-04-20T03:26:34.978Z,1012.56
2018-04-20T03:27:34.958Z,1012.61
2018-04-20T03:28:34.937Z,1012.59
2018-04-20T03:29:34.916Z,1012.57
2018-04-20T03:30:34.897Z,1012.55
2018-04-20T03:31:34.876Z,1012.55
2018-04-20T03:32:34.855Z,1012.55
2018-04-20T03:33:34.834Z,1012.52
2018-04-20T03:34:34.813Z,1012.52
2018-04-20T03:35:34.792Z,1012.5
2018-04-20T03:36:34.771Z,1012.49
2018-04-20T03:37:34.752Z,1012.5
2018-04-20T03:38:34.732Z,1012.49
2018-04-20T03:39:34.711Z,1012.52
2018-04-20T03:40:34.693Z,1012.52
2018-04-20T03:41:34.670Z,1012.52
2018-04-20T03:42:34.649Z,1012.49
2018-04-20T03:43:34.629Z,1012.49
2018-04-20T03:44:34.608Z,1012.53
2018-04-20T03:45:34.588Z,1012.53
2018-04-20T03:46:34.567Z,1012.55
2018-04-20T03:47:34.547Z,1012.58
2018-04-20T03:48:34.527Z,1012.61
2018-04-20T03:49:34.505Z,1012.65
2018-04-20T03:50:34.485Z,1012.69
2018-04-20T03:51:34.465Z,1012.75
2018-04-20T03:52:34.446Z,1012.74
2018-04-20T03:53:34.422Z,1012.76
2018-04-20T03:54:34.402Z,1012.71
2018-04-20T03:55:34.387Z,1012.68
2018-04-20T03:56:34.363Z,1012.68
2018-04-20T03:57:34.341Z,1012.67
2018-04-20T03:58:34.321Z,1012.66
2018-04-20T03:59:34.301Z,1012.59
2018-04-20T04:00:34.281Z,1012.63
2018-04-20T04:01:34.259Z,1012.62
2018-04-20T04:02:34.239Z,1012.6
2018-04-20T04:03:34.219Z,1012.61
2018-04-20T04:04:34.198Z,1012.62
2018-04-20T04:05:34.177Z,1012.57
2018-04-20T04:06:34.156Z,1012.6
2018-04-20T04:07:34.137Z,1012.64
2018-04-20T04:08:34.116Z,1012.63
2018-04-20T04:09:34.095Z,1012.64
2018-04-20T04:10:34.074Z,1012.61
2018-04-20T04:11:34.057Z,1012.64
2018-04-20T04:12:34.129Z,1012.63
2018-04-20T04:13:34.011Z,1012.62
2018-04-20T04:14:33.996Z,1012.6
2018-04-20T04:15:34.003Z,1012.58
2018-04-20T04:16:33.950Z,1012.55
2018-04-20T04:17:33.930Z,1012.55
2018-04-20T04:18:33.914Z,1012.6
2018-04-20T04:19:33.888Z,1012.6
2018-04-20T04:20:33.868Z,1012.61
2018-04-20T04:21:33.848Z,1012.63
2018-04-20T04:22:33.831Z,1012.6
2018-04-20T04:23:33.806Z,1012.59
2018-04-20T04:24:33.799Z,1012.58
2018-04-20T04:25:33.766Z,1012.58
2018-04-20T04:26:33.744Z,1012.61
2018-04-20T04:27:33.724Z,1012.58
2018-04-20T04:28:33.704Z,1012.58
2018-04-20T04:29:33.682Z,1012.57
2018-04-20T04:30:33.660Z,1012.55
2018-04-20T04:31:33.640Z,1012.54
2018-04-20T04:32:33.621Z,1012.5
2018-04-20T04:33:33.599Z,1012.49
2018-04-20T04:34:33.580Z,1012.48
2018-04-20T04:35:33.558Z,1012.5
2018-04-20T04:36:33.537Z,1012.5
2018-04-20T04:37:33.516Z,1012.51
2018-04-20T04:38:33.495Z,1012.54
2018-04-20T04:39:33.473Z,1012.52
2018-04-20T04:40:33.457Z,1012.55
2018-04-20T04:41:33.436Z,1012.54
2018-04-20T04:42:33.415Z,1012.56
2018-04-20T04:43:33.395Z,1012.53
2018-04-20T04:44:33.371Z,1012.57
2018-04-20T04:45:33.350Z,1012.56
2018-04-20T04:46:33.331Z,1012.57
2018-04-20T04:47:33.310Z,1012.54
2018-04-20T04:48:33.378Z,1012.54
2018-04-20T04:49:33.377Z,1012.52
2018-04-20T04:50:33.626Z,1012.52
2018-04-20T04:51:33.226Z,1012.46
2018-04-20T04:52:33.209Z,1012.5
2018-04-20T04:53:33.185Z,1012.49
2018-04-20T04:54:33.166Z,1012.47
2018-04-20T04:55:33.143Z,1012.46
2018-04-20T04:56:33.124Z,1012.45
2018-04-20T04:57:33.103Z,1012.46
2018-04-20T04:58:33.085Z,1012.46
2018-04-20T04:59:33.060Z,1012.45
2018-04-20T05:00:33.041Z,1012.46
2018-04-20T05:01:33.021Z,1012.45
2018-04-20T05:02:33.001Z,1012.44
2018-04-20T05:03:32.981Z,1012.46
2018-04-20T05:04:32.959Z,1012.48
2018-04-20T05:05:32.941Z,1012.47
2018-04-20T05:06:32.918Z,1012.5
2018-04-20T05:07:32.899Z,1012.47
2018-04-20T05:08:32.877Z,1012.49
2018-04-20T05:09:32.859Z,1012.51
2018-04-20T05:10:32.836Z,1012.54
2018-04-20T05:11:32.817Z,1012.52
2018-04-20T05:12:32.797Z,1012.56
2018-04-20T05:13:32.780Z,1012.56
2018-04-20T05:14:32.757Z,1012.56
2018-04-20T05:15:32.738Z,1012.55
2018-04-20T05:16:32.716Z,1012.56
2018-04-20T05:17:32.695Z,1012.55
2018-04-20T05:18:32.681Z,1012.52
2018-04-20T05:19:32.657Z,1012.57
2018-04-20T05:20:32.636Z,1012.56
2018-04-20T05:21:32.616Z,1012.58
2018-04-20T05:22:32.643Z,1012.57
2018-04-20T05:23:32.577Z,1012.61
2018-04-20T05:24:32.562Z,1012.59
2018-04-20T05:25:32.538Z,1012.56
2018-04-20T05:26:32.519Z,1012.59
2018-04-20T05:27:32.500Z,1012.56
2018-04-20T05:28:32.479Z,1012.56
2018-04-20T05:29:32.459Z,1012.58
2018-04-20T05:30:32.440Z,1012.59
2018-04-20T05:31:32.469Z,1012.61
2018-04-20T05:32:32.404Z,1012.62
2018-04-20T05:33:32.381Z,1012.64
2018-04-20T05:34:32.361Z,1012.6
2018-04-20T05:35:32.344Z,1012.61
2018-04-20T05:36:32.323Z,1012.6
2018-04-20T05:37:32.304Z,1012.6
2018-04-20T05:38:32.285Z,1012.6
2018-04-20T05:39:32.266Z,1012.62
2018-04-20T05:40:32.248Z,1012.57
2018-04-20T05:41:32.226Z,1012.6
2018-04-20T05:42:32.209Z,1012.64
2018-04-20T05:43:32.190Z,1012.6
2018-04-20T05:44:32.171Z,1012.61
2018-04-20T05:45:32.153Z,1012.65
2018-04-20T05:46:32.134Z,1012.63
2018-04-20T05:47:32.114Z,1012.63
2018-04-20T05:48:32.095Z,1012.61
2018-04-20T05:49:32.077Z,1012.67
2018-04-20T05:50:32.056Z,1012.66
2018-04-20T05:51:32.039Z,1012.67
2018-04-20T05:52:32.021Z,1012.66
2018-04-20T05:53:32.001Z,1012.67
2018-04-20T05:54:31.981Z,1012.64
2018-04-20T05:55:31.965Z,1012.66
2018-04-20T05:56:31.950Z,1012.67
2018-04-20T05:57:31.928Z,1012.65
2018-04-20T05:58:31.910Z,1012.65
2018-04-20T05:59:31.891Z,1012.67
2018-04-20T06:00:31.874Z,1012.68
2018-04-20T06:01:31.855Z,1012.69
2018-04-20T06:02:31.837Z,1012.71
2018-04-20T06:03:31.818Z,1012.71
2018-04-20T06:04:31.800Z,1012.75
2018-04-20T06:05:31.781Z,1012.74
2018-04-20T06:06:31.762Z,1012.73
2018-04-20T06:07:31.745Z,1012.77
2018-04-20T06:08:31.905Z,1012.74
2018-04-20T06:09:31.711Z,1012.74
2018-04-20T06:10:31.691Z,1012.74
2018-04-20T06:11:31.678Z,1012.73
2018-04-20T06:12:31.653Z,1012.75
2018-04-20T06:13:31.665Z,1012.72
2018-04-20T06:14:31.620Z,1012.73
2018-04-20T06:15:31.602Z,1012.72
2018-04-20T06:16:31.699Z,1012.73
2018-04-20T06:17:31.572Z,1012.72
2018-04-20T06:18:31.833Z,1012.69
2018-04-20T06:19:31.535Z,1012.69
2018-04-20T06:20:31.527Z,1012.72
2018-04-20T06:21:31.492Z,1012.68
2018-04-20T06:22:31.476Z,1012.71
2018-04-20T06:23:31.457Z,1012.71
2018-04-20T06:24:31.441Z,1012.68
2018-04-20T06:25:31.422Z,1012.63
2018-04-20T06:26:31.405Z,1012.65
2018-04-20T06:27:31.388Z,1012.65
2018-04-20T06:28:31.467Z,1012.64
2018-04-20T06:29:31.355Z,1012.64
2018-04-20T06:30:31.338Z,1012.63
2018-04-20T06:31:31.321Z,1012.61
2018-04-20T06:32:31.306Z,1012.6
2018-04-20T06:33:31.290Z,1012.6
2018-04-20T06:34:31.273Z,1012.59
2018-04-20T06:35:31.257Z,1012.54
2018-04-20T06:36:31.242Z,1012.57
2018-04-20T06:37:31.227Z,1012.58
2018-04-20T06:38:31.212Z,1012.58
2018-04-20T06:39:31.197Z,1012.6
2018-04-20T06:40:31.183Z,1012.56
2018-04-20T06:41:31.167Z,1012.57
2018-04-20T06:42:31.153Z,1012.58
2018-04-20T06:43:31.138Z,1012.59
2018-04-20T06:44:31.124Z,1012.54
2018-04-20T06:45:31.109Z,1012.56
2018-04-20T06:46:31.094Z,1012.55
2018-04-20T06:47:31.081Z,1012.54
2018-04-20T06:48:31.068Z,1012.54
2018-04-20T06:49:31.052Z,1012.54
2018-04-20T06:50:31.039Z,1012.52
2018-04-20T06:51:31.032Z,1012.52
2018-04-20T06:52:31.011Z,1012.53
2018-04-20T06:53:30.998Z,1012.5
2018-04-20T06:54:30.990Z,1012.45
2018-04-20T06:55:30.970Z,1012.49
2018-04-20T06:56:30.954Z,1012.5
2018-04-20T06:57:30.942Z,1012.47
2018-04-20T06:58:30.951Z,1012.51
2018-04-20T06:59:30.915Z,1012.52
2018-04-20T07:00:30.902Z,1012.57
2018-04-20T07:01:30.887Z,1012.53
2018-04-20T07:02:30.879Z,1012.55
2018-04-20T07:03:30.862Z,1012.56
2018-04-20T07:04:30.847Z,1012.57
2018-04-20T07:05:30.836Z,1012.6
2018-04-20T07:06:30.822Z,1012.64
2018-04-20T07:07:30.819Z,1012.6
2018-04-20T07:08:30.801Z,1012.61
2018-04-20T07:09:30.789Z,1012.57
2018-04-20T07:10:30.782Z,1012.59
2018-04-20T07:11:30.760Z,1012.58
2018-04-20T07:12:30.889Z,1012.59
2018-04-20T07:13:30.744Z,1012.6
2018-04-20T07:14:30.724Z,1012.61
2018-04-20T07:15:30.718Z,1012.59
2018-04-20T07:16:30.922Z,1012.61
2018-04-20T07:17:31.286Z,1012.59
2018-04-20T07:18:30.680Z,1012.63
2018-04-20T07:19:30.668Z,1012.62
2018-04-20T07:20:30.652Z,1012.6
2018-04-20T07:21:30.642Z,1012.62
2018-04-20T07:22:30.629Z,1012.61
2018-04-20T07:23:30.622Z,1012.61
2018-04-20T07:24:30.606Z,1012.61
2018-04-20T07:25:30.593Z,1012.64
2018-04-20T07:26:30.651Z,1012.61
2018-04-20T07:27:30.571Z,1012.63
2018-04-20T07:28:30.560Z,1012.63
2018-04-20T07:29:30.548Z,1012.62
2018-04-20T07:30:30.537Z,1012.65
2018-04-20T07:31:30.528Z,1012.65
2018-04-20T07:32:30.517Z,1012.63
2018-04-20T07:33:31.099Z,1012.64
2018-04-20T07:34:30.496Z,1012.62
2018-04-20T07:35:30.490Z,1012.63
2018-04-20T07:36:30.480Z,1012.57
2018-04-20T07:37:30.465Z,1012.6
2018-04-20T07:38:30.456Z,1012.56
2018-04-20T07:39:30.447Z,1012.57
2018-04-20T07:40:30.435Z,1012.6
2018-04-20T07:41:30.476Z,1012.57
2018-04-20T07:42:30.416Z,1012.57
2018-04-20T07:43:30.405Z,1012.57
2018-04-20T07:44:30.783Z,1012.52
2018-04-20T07:45:30.622Z,1012.54
2018-04-20T07:46:30.378Z,1012.54
2018-04-20T07:47:30.368Z,1012.53
2018-04-20T07:48:30.358Z,1012.56
2018-04-20T07:49:30.350Z,1012.55
2018-04-20T07:50:30.340Z,1012.6
2018-04-20T07:51:30.331Z,1012.53
2018-04-20T07:52:30.323Z,1012.55
2018-04-20T07:53:30.314Z,1012.56
2018-04-20T07:54:30.307Z,1012.52
2018-04-20T07:55:30.301Z,1012.56
2018-04-20T07:56:30.287Z,1012.56
2018-04-20T07:57:30.429Z,1012.58
2018-04-20T07:58:30.518Z,1012.54
2018-04-20T07:59:30.964Z,1012.56
2018-04-20T08:00:30.484Z,1012.57
2018-04-20T08:01:30.423Z,1012.59
2018-04-20T08:02:30.675Z,1012.55
2018-04-20T08:03:30.672Z,1012.57
2018-04-20T08:04:30.440Z,1012.55
2018-04-20T08:05:30.295Z,1012.6
2018-04-20T08:06:30.203Z,1012.55
2018-04-20T08:07:30.193Z,1012.56
2018-04-20T08:08:30.187Z,1012.59
2018-04-20T08:09:30.179Z,1012.6
2018-04-20T08:10:30.174Z,1012.61
2018-04-20T08:11:30.162Z,1012.61
2018-04-20T08:12:30.157Z,1012.64
2018-04-20T08:13:30.147Z,1012.61
2018-04-20T08:14:30.140Z,1012.57
2018-04-20T08:15:30.131Z,1012.58
2018-04-20T08:16:30.122Z,1012.56
2018-04-20T08:17:30.128Z,1012.6
2018-04-20T08:18:30.107Z,1012.56
2018-04-20T08:19:30.098Z,1012.59
2018-04-20T08:20:30.089Z,1012.63
2018-04-20T08:21:30.111Z,1012.61
2018-04-20T08:22:30.072Z,1012.63
2018-04-20T08:23:30.064Z,1012.62
2018-04-20T08:24:30.055Z,1012.64
2018-04-20T08:25:30.048Z,1012.64
2018-04-20T08:26:30.035Z,1012.63
2018-04-20T08:27:30.026Z,1012.63
2018-04-20T08:28:30.019Z,1012.65
2018-04-20T08:29:30.008Z,1012.64
2018-04-20T08:30:29.998Z,1012.65
2018-04-20T08:31:29.987Z,1012.65
2018-04-20T08:32:29.977Z,1012.65
2018-04-20T08:33:29.974Z,1012.66
2018-04-20T08:34:29.960Z,1012.64
2018-04-20T08:35:29.951Z,1012.62
2018-04-20T08:36:29.941Z,1012.61
2018-04-20T08:37:29.931Z,1012.6
2018-04-20T08:38:29.925Z,1012.66
2018-04-20T08:39:29.913Z,1012.66
2018-04-20T08:40:29.906Z,1012.64
2018-04-20T08:41:29.898Z,1012.66
2018-04-20T08:42:29.889Z,1012.67
2018-04-20T08:43:29.881Z,1012.66
2018-04-20T08:44:29.874Z,1012.66
2018-04-20T08:45:29.871Z,1012.67
2018-04-20T08:46:29.862Z,1012.71
2018-04-20T08:47:29.852Z,1012.72
2018-04-20T08:48:29.844Z,1012.7
2018-04-20T08:49:29.837Z,1012.63
2018-04-20T08:50:29.835Z,1012.69
2018-04-20T08:51:29.823Z,1012.68
2018-04-20T08:52:29.815Z,1012.71
2018-04-20T08:53:29.809Z,1012.71
2018-04-20T08:54:29.801Z,1012.7
2018-04-20T08:55:29.795Z,1012.73
2018-04-20T08:56:29.787Z,1012.72
2018-04-20T08:57:29.780Z,1012.75
2018-04-20T08:58:29.775Z,1012.74
2018-04-20T08:59:29.766Z,1012.67
2018-04-20T09:00:29.757Z,1012.67
2018-04-20T09:01:29.751Z,1012.71
2018-04-20T09:02:29.743Z,1012.72
2018-04-20T09:03:29.736Z,1012.72
2018-04-20T09:04:29.727Z,1012.68
2018-04-20T09:05:29.721Z,1012.68
2018-04-20T09:06:29.711Z,1012.7
2018-04-20T09:07:29.704Z,1012.76
2018-04-20T09:08:29.696Z,1012.76
2018-04-20T09:09:29.689Z,1012.72
2018-04-20T09:10:29.682Z,1012.69
2018-04-20T09:11:29.672Z,1012.67
2018-04-20T09:12:29.662Z,1012.63
2018-04-20T09:13:29.871Z,1012.63
2018-04-20T09:14:29.742Z,1012.72
2018-04-20T09:15:29.639Z,1012.66
2018-04-20T09:16:29.627Z,1012.66
2018-04-20T09:17:29.715Z,1012.68
2018-04-20T09:18:29.619Z,1012.69
2018-04-20T09:19:29.691Z,1012.69
2018-04-20T09:20:29.605Z,1012.65
2018-04-20T09:21:29.581Z,1012.67
2018-04-20T09:22:29.570Z,1012.61
2018-04-20T09:23:29.560Z,1012.62
2018-04-20T09:24:29.820Z,1012.61
2018-04-20T09:25:29.542Z,1012.65
2018-04-20T09:26:29.530Z,1012.63
2018-04-20T09:27:29.521Z,1012.59
2018-04-20T09:28:29.511Z,1012.63
2018-04-20T09:29:29.501Z,1012.59
2018-04-20T09:30:29.491Z,1012.6
2018-04-20T09:31:29.485Z,1012.61
2018-04-20T09:32:29.471Z,1012.65
2018-04-20T09:33:29.461Z,1012.64
2018-04-20T09:34:29.453Z,1012.66
2018-04-20T09:35:29.805Z,1012.68
2018-04-20T09:36:29.431Z,1012.64
2018-04-20T09:37:29.421Z,1012.65
2018-04-20T09:38:29.408Z,1012.64
2018-04-20T09:39:29.398Z,1012.63
2018-04-20T09:40:29.388Z,1012.65
2018-04-20T09:41:29.378Z,1012.64
2018-04-20T09:42:29.367Z,1012.62
2018-04-20T09:43:29.357Z,1012.59
2018-04-20T09:44:29.346Z,1012.63
2018-04-20T09:45:29.338Z,1012.6
2018-04-20T09:46:29.324Z,1012.64
2018-04-20T09:47:29.314Z,1012.64
2018-04-20T09:48:29.308Z,1012.59
2018-04-20T09:49:29.291Z,1012.62
2018-04-20T09:50:29.282Z,1012.57
2018-04-20T09:51:29.292Z,1012.58
2018-04-20T09:52:29.260Z,1012.59
2018-04-20T09:53:29.298Z,1012.57
2018-04-20T09:54:29.239Z,1012.58
2018-04-20T09:55:29.227Z,1012.59
2018-04-20T09:56:29.217Z,1012.58
2018-04-20T09:57:29.206Z,1012.6
2018-04-20T09:58:29.258Z,1012.57
2018-04-20T09:59:29.184Z,1012.54
2018-04-20T10:00:29.209Z,1012.55
2018-04-20T10:01:29.163Z,1012.53
2018-04-20T10:02:29.158Z,1012.57
2018-04-20T10:03:29.141Z,1012.58
2018-04-20T10:04:29.129Z,1012.61
2018-04-20T10:05:29.129Z,1012.6
2018-04-20T10:06:29.109Z,1012.57
2018-04-20T10:07:29.101Z,1012.55
2018-04-20T10:08:29.095Z,1012.53
2018-04-20T10:09:29.078Z,1012.6
2018-04-20T10:10:29.067Z,1012.57
2018-04-20T10:11:29.121Z,1012.56
2018-04-20T10:12:29.046Z,1012.55
2018-04-20T10:13:29.043Z,1012.5
2018-04-20T10:14:29.025Z,1012.54
2018-04-20T10:15:29.015Z,1012.5
2018-04-20T10:16:29.006Z,1012.5
2018-04-20T10:17:28.992Z,1012.46
2018-04-20T10:18:28.983Z,1012.48
2018-04-20T10:19:28.977Z,1012.5
2018-04-20T10:20:28.961Z,1012.46
2018-04-20T10:21:28.949Z,1012.44
2018-04-20T10:22:28.940Z,1012.43
2018-04-20T10:23:28.929Z,1012.42
2018-04-20T10:24:28.918Z,1012.44
2018-04-20T10:25:28.908Z,1012.42
2018-04-20T10:26:28.965Z,1012.45
2018-04-20T10:27:28.888Z,1012.44
2018-04-20T10:28:28.877Z,1012.43
2018-04-20T10:29:28.867Z,1012.43
2018-04-20T10:30:28.863Z,1012.38
2018-04-20T10:31:28.845Z,1012.41
2018-04-20T10:32:28.833Z,1012.47
2018-04-20T10:33:28.825Z,1012.45
2018-04-20T10:34:28.813Z,1012.42
2018-04-20T10:35:28.802Z,1012.46
2018-04-20T10:36:28.791Z,1012.47
2018-04-20T10:37:28.782Z,1012.42
2018-04-20T10:38:28.770Z,1012.45
2018-04-20T10:39:28.760Z,1012.41
2018-04-20T10:40:29.908Z,1012.44
2018-04-20T10:41:28.738Z,1012.4
2018-04-20T10:42:28.729Z,1012.38
2018-04-20T10:43:28.719Z,1012.39
2018-04-20T10:44:28.707Z,1012.37
2018-04-20T10:45:28.697Z,1012.38
2018-04-20T10:46:28.686Z,1012.37
2018-04-20T10:47:28.676Z,1012.36
2018-04-20T10:48:28.718Z,1012.34
2018-04-20T10:49:28.654Z,1012.36
2018-04-20T10:50:28.643Z,1012.32
2018-04-20T10:51:28.633Z,1012.29
2018-04-20T10:52:28.624Z,1012.27
2018-04-20T10:53:28.611Z,1012.26
2018-04-20T10:54:28.601Z,1012.26
2018-04-20T10:55:28.592Z,1012.25
2018-04-20T10:56:28.655Z,1012.28
2018-04-20T10:57:28.571Z,1012.29
2018-04-20T10:58:28.560Z,1012.27
2018-04-20T10:59:28.550Z,1012.26
2018-04-20T11:00:28.544Z,1012.23
2018-04-20T11:01:28.529Z,1012.23
2018-04-20T11:02:28.519Z,1012.27
2018-04-20T11:03:28.523Z,1012.23
2018-04-20T11:04:28.498Z,1012.21
2018-04-20T11:05:28.490Z,1012.24
2018-04-20T11:06:28.479Z,1012.22
2018-04-20T11:07:28.470Z,1012.17
2018-04-20T11:08:28.459Z,1012.2
2018-04-20T11:09:28.447Z,1012.17
2018-04-20T11:10:28.441Z,1012.16
2018-04-20T11:11:28.443Z,1012.17
2018-04-20T11:12:28.424Z,1012.16
2018-04-20T11:13:28.407Z,1012.15
2018-04-20T11:14:28.399Z,1012.14
2018-04-20T11:15:28.390Z,1012.15
2018-04-20T11:16:28.378Z,1012.13
2018-04-20T11:17:28.368Z,1012.06
2018-04-20T11:18:28.358Z,1012.07
2018-04-20T11:19:28.347Z,1012.07
2018-04-20T11:20:28.340Z,1012.1
2018-04-20T11:21:28.328Z,1012.05
2018-04-20T11:22:28.317Z,1012.05
2018-04-20T11:23:28.307Z,1012.07
2018-04-20T11:24:28.296Z,1012
2018-04-20T11:25:28.287Z,1012.01
2018-04-20T11:26:28.276Z,1011.99
2018-04-20T11:27:28.269Z,1012.04
2018-04-20T11:28:28.257Z,1012.02
2018-04-20T11:29:28.248Z,1012.03
2018-04-20T11:30:28.238Z,1011.99
2018-04-20T11:31:28.231Z,1012.04
2018-04-20T11:32:28.220Z,1012.07
2018-04-20T11:33:28.209Z,1011.99
2018-04-20T11:34:28.200Z,1011.97
2018-04-20T11:35:28.189Z,1011.97
2018-04-20T11:36:28.191Z,1011.95
2018-04-20T11:37:28.169Z,1011.96
2018-04-20T11:38:28.162Z,1011.95
2018-04-20T11:39:28.150Z,1011.99
2018-04-20T11:40:28.139Z,1011.97
2018-04-20T11:41:28.129Z,1011.94
2018-04-20T11:42:28.123Z,1011.88
2018-04-20T11:43:28.110Z,1011.9
2018-04-20T11:44:28.100Z,1011.87
2018-04-20T11:45:28.090Z,1011.86
2018-04-20T11:46:28.080Z,1011.84
2018-04-20T11:47:28.072Z,1011.81
2018-04-20T11:48:28.060Z,1011.83
2018-04-20T11:49:28.052Z,1011.83
2018-04-20T11:50:28.043Z,1011.84
2018-04-20T11:51:28.034Z,1011.86
2018-04-20T11:52:28.024Z,1011.84
2018-04-20T11:53:28.017Z,1011.77
2018-04-20T11:54:28.005Z,1011.78
2018-04-20T11:55:27.995Z,1011.8
2018-04-20T11:56:27.985Z,1011.85
2018-04-20T11:57:27.976Z,1011.8
2018-04-20T11:58:27.965Z,1011.8
2018-04-20T11:59:27.955Z,1011.76
2018-04-20T12:00:27.945Z,1011.81
2018-04-20T12:01:27.937Z,1011.76
2018-04-20T12:02:27.927Z,1011.78
2018-04-20T12:03:27.917Z,1011.75
2018-04-20T12:04:27.907Z,1011.8
2018-04-20T12:05:27.899Z,1011.73
2018-04-20T12:06:27.909Z,1011.75
2018-04-20T12:07:27.880Z,1011.73
2018-04-20T12:08:27.871Z,1011.75